Domov               UVHVVR             MKGP            O straneh              
ZDRAVSTVENO VARSTVO RASTLIN
  MREŽA AGROMET. POSTAJ
 ► PROGNOSTIČNA OBVESTILA
AGROMETEOROLOŠKI PODATKI -
ARSO
OBVLADOVANJE TVEGANJ ZARADI
NEUGODNIH VREMENSKIH RAZMER
  ► NARAVNE NESREČE
  ► SUŠA/MOČA
  ► NAMAKANJE
  ► ŽLED (gozdarstvo)
KARTOGRAFSKI PRIKAZI
SPLETNE POVEZAVE
PROJEKTI IN PUBLIKACIJE

AGROMETEOROLOŠKA MREŽA: VREMENSKE POSTAJE IN FENOLOŠKA OPAZOVANJA

Pregled podatkov za lokacijo Drašiči, meteorološka postaja 38741

Pregled senzorjev na lokaciji

ID Ime Zadnja
vrednost
Datum
zadnje
spremembe
Tip
senzorja
1865 Temperatura 2 m ( °C) 11,28 °C 24.10.2017 09:59 50YA
1866 Relativna vlaga 2 m (% RH) 62,3 % RH 24.10.2017 09:59 50YA
1867 Omočenost lista (U) 0 U 24.10.2017 10:00 A730WET
1868 Padavine 0.2 mm (mm) 0 mm 24.10.2017 10:00 Rain-O-Matic

Pregled podatkov zadnjih 24 ur

Zap.
št.
Datum in čas Drašiči
Omočenost
lista
Padavine
0.2
mm
Relativna
vlaga
2
m
Temperatura
2
m
0 24.10.2017 09:00 0 0 62,3 11,28
1 24.10.2017 08:30 0 0 77,88 8,4
2 24.10.2017 08:00 0 0 78,78 7,3
3 24.10.2017 07:30 0 0 80,71 6,76
4 24.10.2017 07:00 0 0 78,17 6,45
5 24.10.2017 06:30 0 0 75,51 6,59
6 24.10.2017 06:00 0 0 72,36 7,06
7 24.10.2017 05:30 0 0 74,53 6,96
8 24.10.2017 05:00 0 0 72,36 7,3
9 24.10.2017 04:30 0 0 69,08 7,91
10 24.10.2017 04:00 0 0 69,79 7,94
11 24.10.2017 03:30 0 0 66,08 8,57
12 24.10.2017 03:00 0 0 54,68 10,33
13 24.10.2017 02:30 0 0 53,94 10,65
14 24.10.2017 02:00 0 0 53,19 10,99
15 24.10.2017 01:30 0 0 52,75 11,11
16 24.10.2017 01:00 0 0 52,94 11,09
17 24.10.2017 00:30 0 0 56 10,4
18 24.10.2017 00:00 0 0 67,69 9,13
19 23.10.2017 23:30 0 0 77,7 8,08
20 23.10.2017 23:00 9 0 86,62 7,45
21 23.10.2017 22:30 8 0 86,91 7,62
22 23.10.2017 22:00 2 0 84,62 7,99
23 23.10.2017 21:30 4 0 68,18 9,65
24 23.10.2017 21:00 10 0 86,11 8,33
25 23.10.2017 20:30 10 0 92,23 8,23
26 23.10.2017 20:00 9 0 91,92 8,28
27 23.10.2017 19:30 9 0 91,6 8,42
28 23.10.2017 19:00 9 0 91,75 8,47
29 23.10.2017 18:30 8 0 91,62 8,42
30 23.10.2017 18:00 8 0 91,11 8,5
31 23.10.2017 17:30 8 0 90,16 8,77
32 23.10.2017 17:00 4 0 89,79 9,06
33 23.10.2017 16:30 1 0 88,45 9,26
34 23.10.2017 16:00 0 0 87,25 9,43
35 23.10.2017 15:30 0 0 86,2 9,57
36 23.10.2017 15:00 0 0 84,81 9,6
37 23.10.2017 14:30 0 0 83,35 9,65
38 23.10.2017 14:00 0 0 83,42 9,67
39 23.10.2017 13:30 0 0 83,93 9,47
40 23.10.2017 13:00 0 0 84,25 9,28
41 23.10.2017 12:30 0 0 84,18 9,18
42 23.10.2017 12:00 0 0 84,88 8,82
43 23.10.2017 11:30 0 0 83,52 8,84
© 2011 Ministrstvo za kmetijstvo, gozdarstvo in prehrano. Vse pravice pridržane.